Latest Weather Observations for Ouse

IDT60801

Issued at 6:35 pm EDT Sunday 26 October 2014 (issued every 30 minutes, with the page automatically refreshed every 10 minutes)

About weather observations | Map of weather stations | Latest weather observations for TAS | Other Formats
Station Details ID: 095048 Name: OUSE FIRE STATION Lat: -42.48 Lon: 146.71 Height: 90.0 m
Data from the previous 72 hours. | See also: Recent months at Ouse
Date/Time
EDT
Temp
°C
App
Temp
°C
Dew
Point
Rel
Hum
%
Delta-T
°C
Wind Press
QNH
hPa
Press
MSL
hPa
Rain
since 9 am
mm
Dir
 
Spd
km/h
Gust
km/h
Spd
kts
Gust
kts
26/06:30pm 13.9 12.7 11.6 86 1.2 S 9 13 5 7 1009.0 1009.0 0.0
26/06:00pm 14.1 12.0 11.3 83 1.5 S 13 17 7 9 1009.0 1009.0 0.0
26/05:30pm 14.2 12.2 11.4 83 1.5 S 13 17 7 9 1009.4 1009.4 0.0
26/05:00pm 14.2 11.7 11.2 82 1.6 S 15 20 8 11 1009.6 1009.6 0.0
26/04:30pm 14.0 12.2 11.0 82 1.6 S 11 17 6 9 1010.3 1010.4 0.0
26/04:00pm 13.9 11.7 10.9 82 1.6 S 13 17 7 9 1010.5 1010.6 0.0
26/03:30pm 14.0 11.8 10.8 81 1.7 S 13 17 7 9 1011.1 1011.2 0.0
26/03:00pm 13.5 11.5 10.3 81 1.7 SSE 11 17 6 9 1011.3 1011.4 0.0
26/02:30pm 13.5 11.9 10.3 81 1.7 S 9 13 5 7 1011.8 1011.9 0.0
26/02:00pm 13.5 11.3 10.7 83 1.5 S 13 17 7 9 1012.1 1012.2 0.0
26/01:30pm 12.9 10.9 10.1 83 1.4 S 11 17 6 9 1012.6 1012.7 0.0
26/01:00pm 12.5 10.4 9.9 84 1.3 SSE 11 17 6 9 1013.0 1013.1 0.0
26/12:30pm 12.4 9.9 9.6 83 1.4 SSE 13 19 7 10 1013.2 1013.3 0.0
26/12:00pm 12.4 10.4 10.0 85 1.2 SSE 11 17 6 9 1013.6 1013.7 0.0
26/11:30am 12.2 10.5 9.9 86 1.2 S 9 13 5 7 1013.9 1014.0 0.0
26/11:00am 11.6 10.2 9.5 87 1.1 S 7 11 4 6 1014.0 1014.1 0.0
26/10:30am 11.0 9.2 9.6 91 0.7 SSE 9 11 5 6 1014.1 1014.2 0.0
26/10:00am 10.8 9.0 9.6 92 0.6 SSE 9 13 5 7 1014.3 1014.4 0.0
26/09:30am 10.6 8.4 9.5 93 0.6 SSE 11 13 6 7 1014.6 1014.7 0.0
26/09:00am 10.2 8.4 9.4 95 0.4 SSE 9 13 5 7 1014.6 1014.7 3.8
26/08:30am 10.0 7.9 9.9 99 0.1 S 11 15 6 8 1014.9 1015.0 3.8
26/08:00am 9.7 8.0 9.7 100 0.0 S 9 11 5 6 1014.7 1014.8 3.8
26/07:30am 9.5 7.7 9.5 100 0.0 S 9 13 5 7 1014.8 1014.9 3.8
26/07:00am 9.3 7.5 9.3 100 0.0 SSE 9 13 5 7 1014.5 1014.6 3.8
26/06:30am 9.3 7.1 9.3 100 0.0 SSE 11 13 6 7 1014.6 1014.7 3.8
26/06:00am 9.2 6.6 9.2 100 0.0 SSE 13 15 7 8 1014.6 1014.7 3.8
26/05:30am 9.2 7.3 9.2 100 0.0 SSE 9 15 5 8 1014.4 1014.5 3.8
26/05:00am 9.1 7.2 9.1 100 0.0 SSE 9 13 5 7 1014.4 1014.5 3.8
26/04:30am 9.1 7.2 9.1 100 0.0 SSE 9 11 5 6 1014.7 1014.8 3.6
26/04:00am 9.1 7.2 9.1 100 0.0 SSE 9 11 5 6 1014.7 1014.8 2.8
26/03:30am 9.4 7.1 9.1 98 0.1 S 11 13 6 7 1015.1 1015.2 1.8
26/03:00am 9.7 7.7 8.6 93 0.5 SSE 9 13 5 7 1015.1 1015.2 0.6
26/02:30am 9.8 7.5 8.9 94 0.4 S 11 15 6 8 1015.1 1015.2 0.6
26/02:00am 9.7 7.5 9.2 97 0.2 SSE 11 13 6 7 1015.3 1015.4 0.6
26/01:30am 9.7 7.8 9.2 97 0.2 S 9 13 5 7 1016.2 1016.2 0.6
26/01:00am 9.7 8.4 9.1 96 0.3 SE 6 9 3 5 1016.6 1016.6 0.6
26/12:30am 9.8 8.5 9.3 97 0.2 SSE 6 7 3 4 1017.3 1017.3 0.6
26/12:00am 9.7 7.8 9.1 96 0.3 S 9 13 5 7 1017.4 1017.4 0.6
 
Date/Time
EDT
Temp
°C
App
Temp
°C
Dew
Point
Rel
Hum
%
Delta-T
°C
Wind Press
QNH
hPa
Press
MSL
hPa
Rain
since 9 am
mm
Dir
 
Spd
km/h
Gust
km/h
Spd
kts
Gust
kts
25/11:30pm 10.0 7.7 9.1 94 0.4 S 11 15 6 8 1017.3 1017.3 0.6
25/11:00pm 10.2 8.3 9.1 93 0.5 S 9 13 5 7 1016.9 1016.9 0.6
25/10:30pm 10.2 7.5 8.8 91 0.7 ESE 13 20 7 11 1016.8 1016.8 0.4
25/10:00pm 10.5 6.9 8.4 87 1.0 ESE 17 24 9 13 1017.2 1017.2 0.2
25/09:30pm 11.7 8.0 8.0 78 1.8 SSE 17 28 9 15 1017.2 1017.2 0.0
25/09:00pm 12.3 8.9 7.8 74 2.2 SSW 15 20 8 11 1016.7 1016.7 0.0
25/08:30pm 12.7 8.6 7.8 72 2.4 S 19 24 10 13 1016.8 1016.8 0.0
25/08:00pm 13.2 10.3 8.3 72 2.4 SSE 13 22 7 12 1015.9 1016.0 0.0
25/07:30pm 14.0 9.5 8.4 69 2.8 SSE 22 33 12 18 1015.4 1015.5 0.0
25/07:00pm 14.9 10.4 8.6 66 3.2 SSE 22 33 12 18 1014.9 1015.0 0.0
25/06:30pm 17.4 13.6 9.8 61 4.0 SE 20 32 11 17 1013.9 1014.0 0.0
25/06:00pm 18.4 13.4 9.7 57 4.6 E 26 37 14 20 1013.2 1013.3 0.0
25/05:30pm 20.1 15.9 9.9 52 5.5 E 22 33 12 18 1012.9 1013.0 0.0
25/05:00pm 21.6 19.4 7.8 41 7.2 SE 9 15 5 8 1012.8 1012.9 0.0
25/04:30pm 22.0 20.1 7.4 39 7.6 ESE 7 11 4 6 1012.9 1013.0 0.0
25/04:00pm 21.9 19.1 8.4 42 7.1 SE 13 17 7 9 1013.1 1013.2 0.0
25/03:30pm 21.8 19.9 9.0 44 6.8 SE 9 17 5 9 1013.4 1013.5 0.0
25/03:00pm 22.2 19.8 8.7 42 7.2 S 11 19 6 10 1013.6 1013.7 0.0
25/02:30pm 22.5 20.5 8.6 41 7.4 W 9 17 5 9 1013.9 1014.0 0.0
25/02:00pm 21.9 19.8 8.1 41 7.3 W 9 15 5 8 1014.1 1014.2 0.0
25/01:30pm 20.9 17.6 8.2 44 6.7 W 15 20 8 11 1014.5 1014.6 0.0
25/01:00pm 20.5 17.8 8.8 47 6.2 WNW 13 19 7 10 1014.5 1014.6 0.0
25/12:30pm 20.7 18.4 9.0 47 6.2 W 11 20 6 11 1014.7 1014.8 0.0
25/12:00pm 20.1 17.4 7.5 44 6.5 W 11 19 6 10 1015.0 1015.1 0.0
25/11:30am 19.9 16.9 7.9 46 6.2 W 13 22 7 12 1015.1 1015.2 0.0
25/11:00am 19.8 17.3 8.2 47 6.0 W 11 20 6 11 1015.2 1015.3 0.0
25/10:30am 18.6 14.9 8.0 50 5.5 W 17 24 9 13 1015.0 1015.1 0.0
25/10:00am 18.3 14.6 8.0 51 5.3 W 17 24 9 13 1015.2 1015.3 0.0
25/09:30am 18.2 14.6 8.5 53 5.0 WSW 17 24 9 13 1015.0 1015.1 0.0
25/09:00am 17.4 14.2 8.5 56 4.6 W 15 22 8 12 1014.9 1015.0 0.0
25/08:30am 16.7 13.7 9.4 62 3.8 W 15 24 8 13 1014.9 1015.0 0.0
25/08:00am 15.7 11.8 9.6 67 3.2 WNW 20 28 11 15 1014.4 1014.5 0.0
25/07:30am 15.4 13.1 10.4 72 2.6 N 13 17 7 9 1014.0 1014.1 0.0
25/07:00am 13.7 11.8 9.2 74 2.3 NW 9 17 5 9 1013.4 1013.5 0.0
25/06:30am 14.8 12.5 9.0 68 3.0 WNW 11 17 6 9 1012.9 1013.0 0.0
25/06:00am 15.2 12.5 9.1 67 3.1 W 13 19 7 10 1012.6 1012.7 0.0
25/05:30am 15.2 12.6 9.3 68 3.0 WNW 13 19 7 10 1012.1 1012.2 0.0
25/05:00am 15.0 12.6 10.2 73 2.5 W 13 19 7 10 1011.8 1011.9 0.0
25/04:30am 15.0 13.5 10.4 74 2.4 WNW 9 13 5 7 1011.4 1011.5 0.0
25/04:00am 15.2 12.9 10.4 73 2.5 NW 13 20 7 11 1010.9 1011.0 0.0
25/03:30am 15.7 13.1 10.7 72 2.7 NW 15 20 8 11 1010.7 1010.8 0.0
25/03:00am 15.7 13.1 10.7 72 2.7 WNW 15 20 8 11 1010.3 1010.4 0.0
25/02:30am 15.8 12.8 10.8 72 2.7 WNW 17 24 9 13 1010.3 1010.4 0.0
25/02:00am 11.9 10.3 11.6 98 0.2 WNW 11 17 6 9 1009.9 1009.9 0.0
25/01:30am 10.6 10.0 10.4 99 0.1 NW 4 9 2 5 1009.8 1009.8 0.0
25/01:00am 10.5 9.9 10.5 100 0.0 ESE 4 7 2 4 1009.6 1009.6 0.0
25/12:30am 10.4 9.4 10.4 100 0.0 NW 6 11 3 6 1009.7 1009.7 0.0
25/12:00am 9.5 7.7 9.5 100 0.0 NNW 9 17 5 9 1009.2 1009.2 0.0
 
Date/Time
EDT
Temp
°C
App
Temp
°C
Dew
Point
Rel
Hum
%
Delta-T
°C
Wind Press
QNH
hPa
Press
MSL
hPa
Rain
since 9 am
mm
Dir
 
Spd
km/h
Gust
km/h
Spd
kts
Gust
kts
24/11:30pm 9.5 7.6 9.2 98 0.1 E 9 15 5 8 1009.4 1009.4 0.0
24/11:00pm 9.8 8.4 9.0 95 0.4 WNW 6 7 3 4 1008.9 1008.9 0.0
24/10:30pm 10.3 9.8 9.4 94 0.5 NNW 2 7 1 4 1009.0 1009.0 0.0
24/10:00pm 11.1 11.2 10.0 93 0.6 CALM 0 0 0 0 1008.9 1008.9 0.0
24/09:30pm 11.9 12.0 10.3 90 0.8 CALM 0 0 0 0 1008.7 1008.7 0.0
24/09:00pm 12.8 11.9 10.7 87 1.1 NW 6 9 3 5 1008.7 1008.7 0.0
24/08:30pm 13.3 12.4 11.2 87 1.1 N 7 9 4 5 1008.6 1008.6 0.0
24/08:00pm 14.6 14.0 11.6 82 1.6 N 6 7 3 4 1008.1 1008.1 0.0
24/07:30pm 16.0 16.7 12.2 78 2.1 CALM 0 0 0 0 1007.8 1007.8 0.0
24/07:00pm 17.2 15.7 11.9 71 2.9 SW 11 13 6 7 1007.7 1007.7 0.0
24/06:30pm 17.0 16.2 11.7 71 2.9 S 7 9 4 5 1007.3 1007.3 0.0
24/06:00pm 17.3 17.0 11.6 69 3.1 ESE 4 7 2 4 1008.2 1008.2 0.0
24/05:30pm 17.5 16.8 11.5 68 3.3 SE 6 9 3 5 1008.9 1008.9 0.0
24/05:00pm 17.2 17.5 11.0 67 3.4 CALM 0 0 0 0 1009.0 1009.0 0.0
24/04:30pm 16.5 16.8 10.8 69 3.1 CALM 0 4 0 2 1009.4 1009.4 0.0
24/04:00pm 15.9 15.1 9.6 66 3.3 N 4 9 2 5 1010.1 1010.1 0.0
24/03:30pm 15.5 15.4 9.6 68 3.1 CALM 0 0 0 0 1010.7 1010.8 0.0
24/03:00pm 15.2 13.6 8.9 66 3.2 SW 7 9 4 5 1011.2 1011.3 0.0
24/02:30pm 14.7 13.4 9.1 69 2.9 SSE 6 9 3 5 1011.8 1011.9 0.0
24/02:00pm 14.1 13.0 8.5 69 2.8 ESE 4 7 2 4 1012.6 1012.7 0.0
24/01:30pm 13.2 12.3 7.9 70 2.6 W 2 7 1 4 1013.3 1013.4 0.0
24/01:00pm 12.2 11.5 6.9 70 2.5 CALM 0 0 0 0 1014.3 1014.4 0.0
24/12:30pm 11.5 9.4 6.8 73 2.2 NNE 7 11 4 6 1015.1 1015.2 0.0
24/12:00pm 11.3 8.8 6.6 73 2.2 NE 9 11 5 6 1015.9 1016.0 0.0
24/11:30am 11.2 9.1 6.5 73 2.2 NNE 7 9 4 5 1016.4 1016.4 0.0
24/11:00am 10.7 8.5 6.3 74 2.1 NNE 7 13 4 7 1016.9 1016.9 0.0
24/10:30am 9.3 7.0 5.7 78 1.6 N 7 11 4 6 1017.6 1017.6 0.0
24/10:00am 8.4 6.2 5.2 80 1.4 NNE 6 9 3 5 1017.8 1017.8 0.0
24/09:30am 7.6 6.0 4.6 81 1.3 ENE 2 6 1 3 1018.3 1018.3 0.0
24/09:00am 6.5 5.3 4.5 87 0.9 CALM 0 0 0 0 1019.0 1019.0 0.0
24/08:30am 4.8 3.5 4.1 95 0.3 CALM 0 0 0 0 1019.7 1019.8 0.0
24/08:00am 3.8 1.3 3.5 98 0.1 N 6 7 3 4 1020.3 1020.4 0.0
24/07:30am 2.7 0.0 2.7 100 0.0 NW 6 7 3 4 1020.7 1020.8 0.0
24/07:00am 0.7 -2.5 0.7 100 0.0 N 7 9 4 5 1021.2 1021.3 0.0
24/06:30am 0.3 -3.0 0.3 100 0.0 NNW 7 9 4 5 1020.9 1021.0 0.0
24/06:00am -0.5 -3.9 -0.6 99 0.0 N 7 9 4 5 1020.9 1021.0 0.0
24/05:30am -0.2 -3.6 -0.3 99 0.0 NNW 7 9 4 5 1021.0 1021.1 0.0
24/05:00am -0.1 -2.5 -0.4 98 0.1 N 2 9 1 5 1021.3 1021.4 0.0
24/04:30am 0.4 -2.7 0.3 99 0.0 N 6 9 3 5 1021.7 1021.8 0.0
24/04:00am 0.2 -3.5 -0.2 97 0.1 N 9 11 5 6 1022.1 1022.2 0.0
24/03:30am 0.7 -2.4 0.1 96 0.2 NNW 6 9 3 5 1022.2 1022.3 0.0
24/03:00am 1.2 -2.0 0.5 95 0.3 NNW 7 9 4 5 1022.7 1022.8 0.0
24/02:30am 1.8 0.0 1.1 95 0.3 CALM 0 6 0 3 1023.0 1023.1 0.0
24/02:00am 2.4 0.3 1.5 94 0.3 SSE 2 7 1 4 1023.3 1023.4 0.0
24/01:30am 3.6 2.0 2.4 92 0.5 CALM 0 0 0 0 1023.4 1023.5 0.0
24/01:00am 4.8 2.9 2.8 87 0.8 SSW 2 6 1 3 1024.0 1024.1 0.0
24/12:30am 6.6 4.0 4.1 84 1.1 E 7 13 4 7 1024.1 1024.2 0.0
24/12:00am 8.5 5.7 5.1 79 1.5 ESE 9 13 5 7 1024.5 1024.6 0.0
 
Date/Time
EDT
Temp
°C
App
Temp
°C
Dew
Point
Rel
Hum
%
Delta-T
°C
Wind Press
QNH
hPa
Press
MSL
hPa
Rain
since 9 am
mm
Dir
 
Spd
km/h
Gust
km/h
Spd
kts
Gust
kts
23/11:30pm 9.2 4.9 5.2 76 1.8 SSE 17 24 9 13 1024.4 1024.5 0.0
23/11:00pm 9.7 5.1 5.5 75 1.9 SSE 19 26 10 14 1024.4 1024.5 0.0
23/10:30pm 10.0 5.2 5.4 73 2.1 SSE 20 26 11 14 1024.5 1024.6 0.0
23/10:00pm 10.2 6.1 6.2 76 1.9 SSE 17 30 9 16 1024.4 1024.5 0.0
23/09:30pm 9.7 6.3 6.1 78 1.7 SSE 13 20 7 11 1024.5 1024.6 0.0
23/09:00pm 9.9 7.7 6.1 77 1.8 SE 7 13 4 7 1024.4 1024.5 0.0
23/08:30pm 11.1 8.6 6.5 73 2.2 SE 9 19 5 10 1024.2 1024.3 0.0
23/08:00pm 12.7 9.5 7.0 68 2.7 SSE 13 24 7 13 1023.8 1023.9 0.0
23/07:30pm 13.9 9.6 7.2 64 3.3 S 19 30 10 16 1023.3 1023.4 0.0
23/07:00pm 15.0 11.2 7.5 61 3.7 S 17 26 9 14 1022.9 1023.0 0.0

Other Formats:

Comma delimited format used in spreadsheet applications
http://www.bom.gov.au/fwo/IDT60801/IDT60801.94957.axf

JavaScript Object Notation format (JSON) in row-major order
http://www.bom.gov.au/fwo/IDT60801/IDT60801.94957.json